WXM80 ListenWXM80 Stop

You find our weather info also at:

UK Metoffice

WeatherCloud

Weather Underground

Northeastern Weather Network

AWEKAS

Citizen Weather Observer Program (CWOP)

HAMweather, WeatherForYou, PWS Weather


Weather Underground History page Text

Daily Summary for March 22, 2017 Units:  English    Metric   Both
« Previous Day
Next Day »
Daily Weekly Monthly Yearly Custom
  High: Low: Average:
Temperature: 45.3 °F 25.1 °F 36 °F
Dew Point: 32.6 °F 2.4 °F 16.2 °F
Humidity: 62 % 30 % 45 %
Wind Speed: 17.8 mph 0.0 mph 7.1 mph
Wind Gust: 27.6 mph - -
Wind:- - WNW
Pressure: 30.40 in 29.81 in -
Precipitation: 0.00 in    
Historical Graphs
 
 
Tabular Data for March 22, 2017
Time Temperature Dew Point Pressure Wind Wind Speed Wind Gust Humidity Rainfall Rate (Hourly)
00:01 45.3 °F 32.6 °F 29.82 in Calm     61 % 0.00 in
00:06 45.0 °F 32.3 °F 29.82 in Calm     61 % 0.00 in
00:11 44.7 °F 32.1 °F 29.82 in Calm     61 % 0.00 in
00:12 44.7 °F 32.1 °F 29.82 in Calm     61 % 0.00 in
00:17 44.5 °F 31.9 °F 29.82 in Calm     61 % 0.00 in
00:22 44.3 °F 31.3 °F 29.82 in Calm     60 % 0.00 in
00:27 44.3 °F 31.7 °F 29.82 in Calm     61 % 0.00 in
00:28 44.3 °F 31.7 °F 29.83 in Calm     61 % 0.00 in
00:33 44.3 °F 31.7 °F 29.82 in Calm     61 % 0.00 in
00:38 44.3 °F 31.7 °F 29.83 in Calm     61 % 0.00 in
00:43 44.2 °F 31.6 °F 29.83 in Calm     61 % 0.00 in
00:48 44.1 °F 31.5 °F 29.83 in Calm     61 % 0.00 in
00:53 43.9 °F 31.7 °F 29.83 in Calm   1.2 mph 62 % 0.00 in
00:58 43.8 °F 31.6 °F 29.83 in WNW 0.6 mph 1.2 mph 62 % 0.00 in
01:03 43.7 °F 31.5 °F 29.83 in Calm     62 % 0.00 in
01:08 43.5 °F 30.9 °F 29.83 in Calm     61 % 0.00 in
01:13 43.4 °F 30.8 °F 29.83 in WNW 0.1 mph 1.2 mph 61 % 0.00 in
01:18 43.4 °F 30.8 °F 29.83 in Calm     61 % 0.00 in
01:23 43.2 °F 30.2 °F 29.83 in Calm   1.2 mph 60 % 0.00 in
01:28 43.0 °F 30.1 °F 29.83 in Calm     60 % 0.00 in
01:33 42.8 °F 29.9 °F 29.83 in Calm   1.2 mph 60 % 0.00 in
01:38 42.7 °F 29.8 °F 29.82 in WNW 0.2 mph 1.2 mph 60 % 0.00 in
01:43 42.5 °F 29.6 °F 29.82 in WNW 0.1 mph 1.2 mph 60 % 0.00 in
01:48 42.2 °F 29.7 °F 29.82 in WNW 1.0 mph 2.3 mph 61 % 0.00 in
01:53 42.0 °F 29.5 °F 29.82 in WNW 0.6 mph 2.3 mph 61 % 0.00 in
01:58 41.8 °F 29.7 °F 29.82 in WNW 0.9 mph 2.3 mph 62 % 0.00 in
02:03 41.7 °F 29.6 °F 29.82 in WNW 0.6 mph 1.2 mph 62 % 0.00 in
02:08 41.5 °F 29.0 °F 29.82 in WNW 0.6 mph 2.3 mph 61 % 0.00 in
02:13 41.2 °F 28.8 °F 29.82 in WNW 1.0 mph 2.3 mph 61 % 0.00 in
02:18 40.9 °F 28.9 °F 29.82 in WNW 0.4 mph 1.2 mph 62 % 0.00 in
02:20 40.9 °F 28.9 °F 29.82 in WNW 0.2 mph 2.0 mph 62 % 0.00 in
02:25 40.8 °F 28.4 °F 29.81 in West 0.5 mph 2.0 mph 61 % 0.00 in
02:30 40.7 °F 27.9 °F 29.81 in West 0.4 mph 1.2 mph 60 % 0.00 in
02:35 40.7 °F 27.5 °F 29.81 in West 1.5 mph 2.0 mph 59 % 0.00 in
02:40 40.6 °F 27.8 °F 29.81 in West 0.5 mph 2.3 mph 60 % 0.00 in
02:45 40.5 °F 28.1 °F 29.82 in West 1.1 mph 3.5 mph 61 % 0.00 in
02:50 40.4 °F 27.6 °F 29.81 in WSW 2.1 mph 4.6 mph 60 % 0.00 in
02:55 40.3 °F 26.7 °F 29.81 in West 0.8 mph 3.5 mph 58 % 0.00 in
03:01 40.5 °F 25.6 °F 29.81 in WNW 2.1 mph 5.8 mph 55 % 0.00 in
03:06 40.9 °F 26.0 °F 29.81 in West 1.9 mph 3.5 mph 55 % 0.00 in
03:11 41.1 °F 26.1 °F 29.81 in WNW 0.6 mph 3.5 mph 55 % 0.00 in
03:16 41.6 °F 26.2 °F 29.81 in West 1.1 mph 3.5 mph 54 % 0.00 in
03:21 41.9 °F 26.0 °F 29.82 in WSW 4.5 mph 5.8 mph 53 % 0.00 in
03:26 42.4 °F 26.0 °F 29.81 in West 3.6 mph 4.6 mph 52 % 0.00 in
03:31 43.0 °F 25.1 °F 29.82 in West 4.9 mph 9.2 mph 49 % 0.00 in
03:36 43.6 °F 25.7 °F 29.82 in WSW 5.1 mph 11.5 mph 49 % 0.00 in
03:41 43.8 °F 25.9 °F 29.82 in WNW 3.9 mph 7.0 mph 49 % 0.00 in
03:46 44.0 °F 26.0 °F 29.82 in NW 2.8 mph 8.1 mph 49 % 0.00 in
03:51 44.1 °F 26.1 °F 29.82 in West 4.6 mph 10.4 mph 49 % 0.00 in
03:56 44.1 °F 27.1 °F 29.82 in WNW 7.5 mph 11.5 mph 51 % 0.00 in
04:01 44.1 °F 27.6 °F 29.82 in West 6.6 mph 11.5 mph 52 % 0.00 in
04:06 44.0 °F 27.5 °F 29.83 in NW 4.4 mph 8.1 mph 52 % 0.00 in
04:11 43.9 °F 27.9 °F 29.83 in NW 4.8 mph 9.2 mph 53 % 0.00 in
04:16 43.8 °F 28.2 °F 29.83 in WNW 3.2 mph 9.2 mph 54 % 0.00 in
04:21 43.7 °F 28.1 °F 29.82 in West 4.0 mph 9.0 mph 54 % 0.00 in
04:26 43.6 °F 28.0 °F 29.83 in NW 3.5 mph 9.2 mph 54 % 0.00 in
04:31 43.5 °F 28.4 °F 29.83 in NW 3.0 mph 9.2 mph 55 % 0.00 in
04:36 43.4 °F 28.7 °F 29.83 in WSW 6.1 mph 10.4 mph 56 % 0.00 in
04:41 43.3 °F 28.2 °F 29.83 in West 3.7 mph 12.7 mph 55 % 0.00 in
04:47 43.1 °F 28.5 °F 29.83 in WNW 4.5 mph 15.0 mph 56 % 0.00 in
04:52 43.0 °F 27.9 °F 29.83 in West 5.9 mph 11.5 mph 55 % 0.00 in
04:57 42.9 °F 27.8 °F 29.83 in NW 5.5 mph 7.0 mph 55 % 0.00 in
05:02 42.7 °F 28.1 °F 29.84 in WSW 5.5 mph 15.0 mph 56 % 0.00 in
05:07 42.6 °F 28.0 °F 29.84 in WNW 7.0 mph 13.8 mph 56 % 0.00 in
05:12 42.4 °F 27.8 °F 29.85 in West 5.2 mph 11.5 mph 56 % 0.00 in
05:17 42.2 °F 26.7 °F 29.85 in WNW 7.8 mph 17.3 mph 54 % 0.00 in
05:22 42.0 °F 26.5 °F 29.85 in WSW 6.8 mph 15.0 mph 54 % 0.00 in
05:27 41.8 °F 27.2 °F 29.85 in NW 8.9 mph 13.8 mph 56 % 0.00 in
05:32 41.5 °F 27.4 °F 29.86 in NW 9.0 mph 18.4 mph 57 % 0.00 in
05:37 41.2 °F 26.7 °F 29.86 in North 7.5 mph 12.7 mph 56 % 0.00 in
05:42 41.0 °F 26.1 °F 29.87 in WNW 11.0 mph 17.3 mph 55 % 0.00 in
05:47 40.8 °F 25.9 °F 29.87 in WNW 6.1 mph 20.0 mph 55 % 0.00 in
05:52 40.6 °F 25.2 °F 29.88 in West 11.7 mph 21.9 mph 54 % 0.00 in
05:57 40.3 °F 24.5 °F 29.88 in WNW 12.7 mph 24.2 mph 53 % 0.00 in
06:02 40.1 °F 24.8 °F 29.88 in West 5.7 mph 11.5 mph 54 % 0.00 in
06:07 40.0 °F 24.7 °F 29.89 in NW 4.0 mph 4.0 mph 54 % 0.00 in
06:12 39.7 °F 24.8 °F 29.90 in WNW 8.8 mph 13.8 mph 55 % 0.00 in
06:17 39.5 °F 24.2 °F 29.90 in WNW 9.1 mph 15.0 mph 54 % 0.00 in
06:22 39.3 °F 24.5 °F 29.91 in WNW 11.4 mph 16.1 mph 55 % 0.00 in
06:27 39.2 °F 24.4 °F 29.91 in NNW 8.6 mph 16.1 mph 55 % 0.00 in
06:32 39.0 °F 24.6 °F 29.90 in West 9.2 mph 16.0 mph 56 % 0.00 in
06:37 38.8 °F 24.9 °F 29.91 in WNW 8.8 mph 16.0 mph 57 % 0.00 in
06:42 38.7 °F 24.8 °F 29.91 in WNW 8.0 mph 12.7 mph 57 % 0.00 in
06:47 38.6 °F 24.7 °F 29.91 in West 4.0 mph 10.4 mph 57 % 0.00 in
06:52 38.5 °F 24.6 °F 29.91 in WNW 6.3 mph 10.4 mph 57 % 0.00 in
06:57 38.4 °F 24.5 °F 29.91 in West 5.8 mph 13.8 mph 57 % 0.00 in
07:02 38.4 °F 24.9 °F 29.91 in WNW 6.1 mph 16.1 mph 58 % 0.00 in
07:07 38.3 °F 24.8 °F 29.91 in WNW 6.6 mph 10.4 mph 58 % 0.00 in
07:12 38.3 °F 24.4 °F 29.91 in West 6.8 mph 15.0 mph 57 % 0.00 in
07:17 38.3 °F 24.8 °F 29.92 in WNW 6.8 mph 12.7 mph 58 % 0.00 in
07:22 38.3 °F 24.8 °F 29.92 in NW 10.6 mph 12.7 mph 58 % 0.00 in
07:27 38.3 °F 24.8 °F 29.92 in NW 7.2 mph 12.7 mph 58 % 0.00 in
07:32 38.4 °F 24.9 °F 29.92 in North 7.4 mph 16.1 mph 58 % 0.00 in
07:42 38.6 °F 24.7 °F 29.92 in West 6.6 mph 12.7 mph 57 % 0.00 in
07:48 38.7 °F 24.3 °F 29.92 in WNW 9.0 mph 24.0 mph 56 % 0.00 in
07:53 38.8 °F 23.6 °F 29.92 in WNW 11.3 mph 18.4 mph 54 % 0.00 in
07:57 38.9 °F 24.1 °F 29.93 in NW 6.9 mph 11.5 mph 55 % 0.00 in
08:03 39.0 °F 24.2 °F 29.93 in WNW 8.0 mph 17.0 mph 55 % 0.00 in
08:08 39.0 °F 22.8 °F 29.94 in NW 8.0 mph 17.0 mph 52 % 0.00 in
08:13 39.0 °F 23.7 °F 29.94 in NW 9.6 mph 16.1 mph 54 % 0.00 in
08:18 39.1 °F 23.8 °F 29.94 in WNW 8.0 mph 24.0 mph 54 % 0.00 in
08:23 39.2 °F 23.9 °F 29.94 in West 6.7 mph 21.9 mph 54 % 0.00 in
08:29 39.3 °F 24.9 °F 29.94 in NW 9.4 mph 11.5 mph 56 % 0.00 in
08:34 39.4 °F 23.7 °F 29.94 in NW 9.4 mph 13.8 mph 53 % 0.00 in
08:39 39.4 °F 23.7 °F 29.95 in WNW 13.6 mph 20.7 mph 53 % 0.00 in
08:44 39.1 °F 23.4 °F 29.95 in WNW 10.0 mph 26.5 mph 53 % 0.00 in
08:49 38.7 °F 23.0 °F 29.96 in WNW 11.4 mph 21.9 mph 53 % 0.00 in
08:54 38.4 °F 23.2 °F 29.96 in WNW 14.1 mph 27.6 mph 54 % 0.00 in
08:59 38.3 °F 22.2 °F 29.97 in NW 8.7 mph 19.6 mph 52 % 0.00 in
09:09 38.3 °F 23.5 °F 29.97 in NW 7.7 mph 11.5 mph 55 % 0.00 in
09:14 38.2 °F 23.0 °F 29.98 in NNW 8.0 mph 21.9 mph 54 % 0.00 in
09:19 38.0 °F 22.4 °F 29.98 in NNW 11.7 mph 19.6 mph 53 % 0.00 in
09:24 37.7 °F 20.2 °F 29.99 in NW 9.0 mph 15.0 mph 49 % 0.00 in
09:29 37.4 °F 18.5 °F 29.99 in NNE 12.9 mph 20.7 mph 46 % 0.00 in
09:34 37.1 °F 18.7 °F 29.99 in NNW 9.7 mph 19.6 mph 47 % 0.00 in
09:39 36.9 °F 19.5 °F 30.00 in WNW 10.6 mph 19.0 mph 49 % 0.00 in
09:44 36.7 °F 18.8 °F 30.00 in North 11.4 mph 19.6 mph 48 % 0.00 in
09:49 36.7 °F 20.3 °F 30.01 in NW 12.3 mph 19.0 mph 51 % 0.00 in
09:54 36.8 °F 19.4 °F 30.01 in NW 11.4 mph 19.6 mph 49 % 0.00 in
09:59 36.8 °F 19.9 °F 30.01 in WNW 7.3 mph 20.7 mph 50 % 0.00 in
10:04 36.8 °F 17.9 °F 30.01 in West 9.8 mph 25.3 mph 46 % 0.00 in
10:09 36.7 °F 18.3 °F 30.01 in NW 13.3 mph 20.7 mph 47 % 0.00 in
10:19 36.5 °F 18.2 °F 30.02 in NW 10.5 mph 18.4 mph 47 % 0.00 in
10:24 36.7 °F 18.3 °F 30.02 in West 7.5 mph 13.8 mph 47 % 0.00 in
10:29 36.8 °F 16.9 °F 30.03 in NW 12.7 mph 23.0 mph 44 % 0.00 in
10:34 36.8 °F 17.4 °F 30.03 in NW 9.0 mph 19.6 mph 45 % 0.00 in
10:39 36.9 °F 18.0 °F 30.03 in NW 11.0 mph 19.6 mph 46 % 0.00 in
10:44 37.1 °F 18.2 °F 30.04 in WNW 8.9 mph 12.7 mph 46 % 0.00 in
10:50 37.1 °F 16.6 °F 30.03 in NNW 10.8 mph 19.6 mph 43 % 0.00 in
10:55 37.2 °F 17.8 °F 30.03 in NW 9.4 mph 23.0 mph 45 % 0.00 in
11:00 37.4 °F 18.5 °F 30.04 in WNW 9.8 mph 21.9 mph 46 % 0.00 in
11:05 37.6 °F 18.7 °F 30.04 in WNW 8.9 mph 19.0 mph 46 % 0.00 in
11:10 37.5 °F 17.5 °F 30.05 in West 10.1 mph 21.0 mph 44 % 0.00 in
11:15 37.5 °F 18.6 °F 30.05 in NNW 10.9 mph 18.0 mph 46 % 0.00 in
11:20 37.8 °F 17.3 °F 30.05 in North 7.7 mph 15.0 mph 43 % 0.00 in
11:25 37.9 °F 17.4 °F 30.06 in NNW 5.4 mph 18.4 mph 43 % 0.00 in
11:35 37.9 °F 16.8 °F 30.06 in WNW 12.0 mph 19.6 mph 42 % 0.00 in
11:40 37.7 °F 16.6 °F 30.06 in WSW 8.9 mph 19.6 mph 42 % 0.00 in
11:45 37.6 °F 16.5 °F 30.06 in WNW 17.8 mph 21.9 mph 42 % 0.00 in
11:50 37.3 °F 15.7 °F 30.07 in NW 6.5 mph 16.1 mph 41 % 0.00 in
11:56 37.4 °F 18.0 °F 30.07 in WNW 7.0 mph 19.0 mph 45 % 0.00 in
12:01 37.4 °F 15.2 °F 30.07 in NNW 12.9 mph 20.7 mph 40 % 0.00 in
12:06 37.2 °F 15.1 °F 30.07 in NW 7.0 mph 17.3 mph 40 % 0.00 in
12:11 37.2 °F 15.1 °F 30.08 in WNW 9.3 mph 16.1 mph 40 % 0.00 in
12:16 37.1 °F 14.4 °F 30.08 in NNW 14.1 mph 23.0 mph 39 % 0.00 in
12:21 37.1 °F 15.0 °F 30.08 in NW 7.0 mph 17.3 mph 40 % 0.00 in
12:26 36.9 °F 14.2 °F 30.08 in NW 6.9 mph 19.6 mph 39 % 0.00 in
12:31 36.9 °F 13.6 °F 30.08 in WNW 10.6 mph 25.3 mph 38 % 0.00 in
12:36 37.0 °F 13.7 °F 30.08 in WNW 12.0 mph 19.6 mph 38 % 0.00 in
12:41 36.9 °F 12.4 °F 30.09 in NNW 8.2 mph 20.7 mph 36 % 0.00 in
12:46 36.8 °F 13.5 °F 30.09 in West 9.6 mph 18.4 mph 38 % 0.00 in
12:51 36.7 °F 12.2 °F 30.09 in WNW 12.2 mph 18.4 mph 36 % 0.00 in
12:56 36.7 °F 12.8 °F 30.09 in WSW 6.3 mph 12.7 mph 37 % 0.00 in
13:01 36.7 °F 11.6 °F 30.09 in NW 12.1 mph 20.7 mph 35 % 0.00 in
13:06 36.5 °F 10.1 °F 30.10 in NW 9.4 mph 18.4 mph 33 % 0.00 in
13:11 36.3 °F 9.9 °F 30.10 in NNW 11.8 mph 19.6 mph 33 % 0.00 in
13:16 36.1 °F 10.4 °F 30.10 in WNW 12.6 mph 20.7 mph 34 % 0.00 in
13:21 36.1 °F 9.7 °F 30.11 in North 8.5 mph 17.3 mph 33 % 0.00 in
13:26 36.5 °F 12.7 °F 30.11 in WNW 4.8 mph 13.0 mph 37 % 0.00 in
13:31 36.9 °F 10.4 °F 30.11 in West 6.8 mph 13.8 mph 33 % 0.00 in
13:36 37.1 °F 11.9 °F 30.11 in NNW 12.6 mph 19.6 mph 35 % 0.00 in
13:42 37.2 °F 10.7 °F 30.10 in North 11.9 mph 20.7 mph 33 % 0.00 in
13:47 37.0 °F 10.5 °F 30.11 in NNW 8.4 mph 15.0 mph 33 % 0.00 in
13:52 37.0 °F 11.2 °F 30.11 in NNW 10.4 mph 18.4 mph 34 % 0.00 in
13:57 36.6 °F 8.8 °F 30.12 in North 11.0 mph 18.4 mph 31 % 0.00 in
14:02 36.5 °F 10.7 °F 30.12 in NW 7.6 mph 13.8 mph 34 % 0.00 in
14:07 36.6 °F 11.5 °F 30.12 in NW 3.8 mph 11.5 mph 35 % 0.00 in
14:12 37.0 °F 11.8 °F 30.13 in North 9.0 mph 13.8 mph 35 % 0.00 in
14:14 37.0 °F 11.2 °F 30.12 in NW 9.5 mph 16.1 mph 34 % 0.00 in
14:19 36.9 °F 11.8 °F 30.13 in NW 9.1 mph 18.4 mph 35 % 0.00 in
14:24 36.8 °F 12.3 °F 30.13 in NW 9.4 mph 15.0 mph 36 % 0.00 in
14:29 37.1 °F 12.6 °F 30.13 in WNW 8.1 mph 18.4 mph 36 % 0.00 in
14:34 37.2 °F 12.7 °F 30.13 in NE 6.2 mph 10.4 mph 36 % 0.00 in
14:39 37.4 °F 11.5 °F 30.13 in NNW 10.7 mph 13.8 mph 34 % 0.00 in
14:44 37.1 °F 9.9 °F 30.14 in NNW 7.6 mph 11.5 mph 32 % 0.00 in
14:49 36.9 °F 11.8 °F 30.14 in North 7.0 mph 19.0 mph 35 % 0.00 in
14:54 36.8 °F 11.0 °F 30.14 in North 8.0 mph 18.4 mph 34 % 0.00 in
14:59 36.4 °F 9.3 °F 30.14 in NW 7.8 mph 19.6 mph 32 % 0.00 in
15:04 36.2 °F 9.1 °F 30.14 in WNW 9.0 mph 17.0 mph 32 % 0.00 in
15:09 36.1 °F 9.0 °F 30.13 in WNW 9.3 mph 15.0 mph 32 % 0.00 in
15:14 36.1 °F 8.3 °F 30.13 in NW 10.7 mph 17.3 mph 31 % 0.00 in
15:19 36.3 °F 12.5 °F 30.13 in WNW 4.4 mph 12.7 mph 37 % 0.00 in
15:24 36.3 °F 10.6 °F 30.14 in North 9.3 mph 16.1 mph 34 % 0.00 in
15:25 36.2 °F 10.5 °F 30.14 in North 6.0 mph 17.3 mph 34 % 0.00 in
15:26 36.2 °F 10.5 °F 30.14 in NNE 7.1 mph 13.8 mph 34 % 0.00 in
15:27 36.2 °F 11.1 °F 30.14 in NNW 7.6 mph 18.4 mph 35 % 0.00 in
15:30 36.1 °F 9.7 °F 30.14 in NNE 11.0 mph 17.3 mph 33 % 0.00 in
15:35 35.9 °F 10.2 °F 30.14 in North 12.2 mph 20.0 mph 34 % 0.00 in
15:37 35.7 °F 9.4 °F 30.14 in NNE 9.2 mph 11.0 mph 33 % 0.00 in
15:39 35.7 °F 8.7 °F 30.14 in NNE 7.7 mph 20.0 mph 32 % 0.00 in
15:44 35.4 °F 8.4 °F 30.15 in NNW 6.6 mph 21.9 mph 32 % 0.00 in
15:50 35.2 °F 8.9 °F 30.14 in North 7.9 mph 13.8 mph 33 % 0.00 in
15:55 34.9 °F 8.0 °F 30.14 in NNW 10.4 mph 19.6 mph 32 % 0.00 in
15:57 34.8 °F 7.9 °F 30.15 in North 8.4 mph 17.3 mph 32 % 0.00 in
16:02 34.7 °F 8.5 °F 30.15 in North 10.8 mph 15.0 mph 33 % 0.00 in
16:06 34.6 °F 7.7 °F 30.16 in NNW 8.7 mph 14.0 mph 32 % 0.00 in
16:11 34.6 °F 9.1 °F 30.16 in NW 8.2 mph 16.1 mph 34 % 0.00 in
16:16 34.6 °F 7.7 °F 30.16 in NW 9.1 mph 13.0 mph 32 % 0.00 in
16:26 34.3 °F 6.0 °F 30.17 in NNW 11.7 mph 20.7 mph 30 % 0.00 in
16:31 34.1 °F 7.3 °F 30.17 in NNW 8.8 mph 19.0 mph 32 % 0.00 in
16:35 34.0 °F 6.5 °F 30.17 in North 12.0 mph 19.6 mph 31 % 0.00 in
16:40 33.9 °F 6.4 °F 30.17 in North 8.5 mph 19.6 mph 31 % 0.00 in
16:45 33.9 °F 8.4 °F 30.17 in NW 10.4 mph 19.6 mph 34 % 0.00 in
16:50 33.9 °F 7.8 °F 30.17 in NW 7.9 mph 21.9 mph 33 % 0.00 in
16:55 33.7 °F 6.2 °F 30.18 in NNW 12.5 mph 19.6 mph 31 % 0.00 in
17:00 33.4 °F 6.7 °F 30.18 in NNW 10.8 mph 16.1 mph 32 % 0.00 in
17:05 33.2 °F 7.2 °F 30.19 in North 11.3 mph 16.1 mph 33 % 0.00 in
17:08 33.0 °F 5.6 °F 30.19 in North 8.9 mph 19.6 mph 31 % 0.00 in
17:09 32.9 °F 6.9 °F 30.18 in NW 8.2 mph 15.0 mph 33 % 0.00 in
17:10 32.9 °F 7.6 °F 30.19 in NNE 8.2 mph 15.0 mph 34 % 0.00 in
17:15 32.5 °F 7.2 °F 30.19 in NW 7.0 mph 14.0 mph 34 % 0.00 in
17:25 32.3 °F 7.0 °F 30.19 in NW 10.5 mph 16.0 mph 34 % 0.00 in
17:30 32.1 °F 7.5 °F 30.20 in North 9.6 mph 18.4 mph 35 % 0.00 in
17:35 32.0 °F 6.1 °F 30.20 in North 6.9 mph 10.4 mph 33 % 0.00 in
17:41 31.9 °F 6.0 °F 30.21 in NW 8.8 mph 13.8 mph 33 % 0.00 in
17:46 31.8 °F 5.9 °F 30.21 in NW 6.8 mph 14.0 mph 33 % 0.00 in
17:51 31.7 °F 5.8 °F 30.21 in North 5.5 mph 13.8 mph 33 % 0.00 in
17:56 31.6 °F 7.7 °F 30.21 in NNW 6.8 mph 19.6 mph 36 % 0.00 in
18:01 31.5 °F 5.7 °F 30.22 in North 7.0 mph 16.1 mph 33 % 0.00 in
18:06 31.4 °F 6.9 °F 30.22 in NNW 7.2 mph 16.1 mph 35 % 0.00 in
18:13 31.2 °F 6.7 °F 30.22 in NW 7.9 mph 17.0 mph 35 % 0.00 in
18:18 30.9 °F 5.8 °F 30.23 in NW 7.6 mph 15.0 mph 34 % 0.00 in
18:23 30.8 °F 8.1 °F 30.24 in NNW 6.9 mph 13.0 mph 38 % 0.00 in
18:28 30.6 °F 6.8 °F 30.24 in NW 10.5 mph 20.7 mph 36 % 0.00 in
18:33 30.5 °F 6.1 °F 30.24 in NNE 9.7 mph 17.3 mph 35 % 0.00 in
18:38 30.3 °F 5.9 °F 30.25 in NW 9.1 mph 16.1 mph 35 % 0.00 in
18:43 30.2 °F 6.4 °F 30.26 in North 9.0 mph 16.1 mph 36 % 0.00 in
18:48 30.1 °F 7.5 °F 30.26 in NNW 11.4 mph 21.0 mph 38 % 0.00 in
18:53 30.0 °F 6.2 °F 30.26 in NW 7.7 mph 16.1 mph 36 % 0.00 in
18:58 29.9 °F 7.3 °F 30.26 in North 10.5 mph 18.4 mph 38 % 0.00 in
19:04 29.8 °F 6.1 °F 30.26 in NNW 9.5 mph 17.3 mph 36 % 0.00 in
19:09 29.7 °F 6.6 °F 30.27 in NW 9.7 mph 19.6 mph 37 % 0.00 in
19:14 29.6 °F 6.5 °F 30.27 in NW 7.9 mph 17.3 mph 37 % 0.00 in
19:19 29.5 °F 7.0 °F 30.28 in NNW 6.8 mph 12.7 mph 38 % 0.00 in
19:24 29.4 °F 5.7 °F 30.28 in NNW 7.0 mph 11.5 mph 36 % 0.00 in
19:29 29.3 °F 6.2 °F 30.28 in NW 5.9 mph 19.6 mph 37 % 0.00 in
19:34 29.2 °F 6.1 °F 30.29 in NW 9.0 mph 17.3 mph 37 % 0.00 in
19:39 29.0 °F 5.9 °F 30.29 in NNW 5.0 mph 8.1 mph 37 % 0.00 in
19:44 28.9 °F 6.4 °F 30.29 in NNW 5.3 mph 8.1 mph 38 % 0.00 in
19:49 28.9 °F 6.4 °F 30.29 in NNW 6.0 mph 10.4 mph 38 % 0.00 in
19:54 28.8 °F 5.2 °F 30.30 in North 4.8 mph 15.0 mph 36 % 0.00 in
19:59 28.7 °F 5.7 °F 30.29 in NW 2.4 mph 12.0 mph 37 % 0.00 in
20:04 28.6 °F 6.7 °F 30.30 in NW 7.3 mph 11.5 mph 39 % 0.00 in
20:09 28.5 °F 6.1 °F 30.30 in North 9.0 mph 19.6 mph 38 % 0.00 in
20:14 28.4 °F 6.6 °F 30.30 in NNW 8.2 mph 17.3 mph 39 % 0.00 in
20:19 28.3 °F 7.6 °F 30.31 in NW 7.7 mph 19.6 mph 41 % 0.00 in
20:24 28.2 °F 7.5 °F 30.31 in NNW 8.5 mph 16.1 mph 41 % 0.00 in
20:30 28.1 °F 6.8 °F 30.31 in NNW 10.5 mph 20.7 mph 40 % 0.00 in
20:34 28.1 °F 7.4 °F 30.31 in NW 11.6 mph 18.4 mph 41 % 0.00 in
20:40 27.9 °F 7.2 °F 30.32 in NNW 8.4 mph 16.1 mph 41 % 0.00 in
20:45 27.8 °F 7.1 °F 30.33 in NW 10.5 mph 20.7 mph 41 % 0.00 in
20:50 27.8 °F 7.1 °F 30.33 in NNW 6.8 mph 13.8 mph 41 % 0.00 in
20:55 27.6 °F 7.5 °F 30.33 in NNW 6.5 mph 11.5 mph 42 % 0.00 in
21:00 27.6 °F 6.4 °F 30.33 in North 7.1 mph 12.0 mph 40 % 0.00 in
21:05 27.5 °F 6.8 °F 30.34 in NW 6.9 mph 19.6 mph 41 % 0.00 in
21:10 27.4 °F 6.2 °F 30.34 in NW 4.5 mph 13.8 mph 40 % 0.00 in
21:15 27.2 °F 6.6 °F 30.34 in NNW 9.0 mph 16.0 mph 41 % 0.00 in
21:20 27.2 °F 6.0 °F 30.35 in North 7.6 mph 14.0 mph 40 % 0.00 in
21:25 27.1 °F 5.9 °F 30.35 in NNW 7.3 mph 16.1 mph 40 % 0.00 in
21:30 26.9 °F 4.6 °F 30.35 in North 7.4 mph 15.0 mph 38 % 0.00 in
21:31 26.9 °F 4.6 °F 30.36 in NNW 6.5 mph 13.8 mph 38 % 0.00 in
21:36 26.8 °F 4.5 °F 30.36 in NW 8.2 mph 13.8 mph 38 % 0.00 in
21:41 26.7 °F 4.5 °F 30.36 in NNW 9.3 mph 15.0 mph 38 % 0.00 in
21:46 26.5 °F 3.7 °F 30.36 in NNW 9.8 mph 19.6 mph 37 % 0.00 in
21:51 26.5 °F 3.7 °F 30.36 in WNW 7.0 mph 11.5 mph 37 % 0.00 in
21:56 26.4 °F 4.2 °F 30.36 in NW 8.4 mph 12.7 mph 38 % 0.00 in
22:01 26.3 °F 4.7 °F 30.36 in NNW 10.2 mph 13.0 mph 39 % 0.00 in
22:06 26.2 °F 3.4 °F 30.36 in NNW 9.3 mph 17.3 mph 37 % 0.00 in
22:11 26.2 °F 4.6 °F 30.36 in NNW 7.5 mph 15.0 mph 39 % 0.00 in
22:16 26.1 °F 3.9 °F 30.36 in NNW 8.1 mph 12.7 mph 38 % 0.00 in
22:21 26.1 °F 4.5 °F 30.36 in NNW 7.0 mph 12.7 mph 39 % 0.00 in
22:26 26.1 °F 5.6 °F 30.37 in NNE 5.6 mph 14.0 mph 41 % 0.00 in
22:32 26.0 °F 3.8 °F 30.37 in NNW 5.9 mph 15.0 mph 38 % 0.00 in
22:37 25.9 °F 3.2 °F 30.37 in North 8.9 mph 15.0 mph 37 % 0.00 in
22:42 25.9 °F 3.7 °F 30.37 in North 4.9 mph 11.5 mph 38 % 0.00 in
22:47 25.8 °F 3.1 °F 30.38 in NW 10.6 mph 17.3 mph 37 % 0.00 in
22:52 25.8 °F 3.1 °F 30.38 in NNW 7.5 mph 15.0 mph 37 % 0.00 in
22:57 25.7 °F 2.4 °F 30.38 in North 7.0 mph 11.5 mph 36 % 0.00 in
23:02 25.7 °F 3.6 °F 30.38 in NNW 7.7 mph 16.0 mph 38 % 0.00 in
23:07 25.6 °F 3.5 °F 30.38 in North 4.1 mph 6.9 mph 38 % 0.00 in
23:12 25.6 °F 2.9 °F 30.38 in North 5.8 mph 10.4 mph 37 % 0.00 in
23:17 25.5 °F 3.4 °F 30.38 in NW 6.2 mph 11.5 mph 38 % 0.00 in
23:22 25.5 °F 3.4 °F 30.38 in NW 3.0 mph 6.0 mph 38 % 0.00 in
23:27 25.4 °F 3.3 °F 30.38 in North 6.9 mph 13.8 mph 38 % 0.00 in
23:32 25.4 °F 4.4 °F 30.39 in NNE 8.3 mph 15.0 mph 40 % 0.00 in
23:37 25.3 °F 3.8 °F 30.39 in NNW 5.5 mph 12.7 mph 39 % 0.00 in
23:42 25.3 °F 4.3 °F 30.39 in NNW 6.5 mph 10.4 mph 40 % 0.00 in
23:47 25.2 °F 3.7 °F 30.39 in North 7.0 mph 11.5 mph 39 % 0.00 in
23:53 25.2 °F 3.7 °F 30.40 in NW 6.5 mph 10.4 mph 39 % 0.00 in
23:58 25.1 °F 4.1 °F 30.40 in NNW 6.3 mph 11.5 mph 40 % 0.00 in
Crab Meadow Weather
Compliments of Weather Underground - 3 mb

Script developed by  Jim McMurry - jmcmurry@mwt.net Adapted for the template by  Wim van der Kuil - Leuven-Template.eu

Astronomy: Pluto is not a planet, because it does not have a fixed orbit and it's orbit comes in between the orbit of another planet (Neptune).